sensor_id;sensor_type;location;lat;lon;timestamp;pressure;altitude;pressure_sealevel;temperature;humidity
7157;BME280;3620;49.862;8.758;2023-03-03T00:00:41;99582.78;;;9.02;45.46
7157;BME280;3620;49.862;8.758;2023-03-03T00:03:10;99585.13;;;9.10;44.72
7157;BME280;3620;49.862;8.758;2023-03-03T00:05:37;99583.75;;;8.98;45.36
7157;BME280;3620;49.862;8.758;2023-03-03T00:08:04;99586.94;;;9.08;44.91
7157;BME280;3620;49.862;8.758;2023-03-03T00:10:31;99597.66;;;9.02;45.40
7157;BME280;3620;49.862;8.758;2023-03-03T00:12:58;99588.47;;;9.15;44.44
7157;BME280;3620;49.862;8.758;2023-03-03T00:15:27;99590.88;;;8.95;45.06
7157;BME280;3620;49.862;8.758;2023-03-03T00:17:54;99591.31;;;9.07;44.95
7157;BME280;3620;49.862;8.758;2023-03-03T00:20:28;99587.03;;;9.05;45.48
7157;BME280;3620;49.862;8.758;2023-03-03T00:22:55;99588.75;;;9.06;44.68
7157;BME280;3620;49.862;8.758;2023-03-03T00:25:28;99598.69;;;8.96;45.28
7157;BME280;3620;49.862;8.758;2023-03-03T00:27:55;99603.19;;;8.93;44.88
7157;BME280;3620;49.862;8.758;2023-03-03T00:30:27;99608.31;;;8.96;45.42
7157;BME280;3620;49.862;8.758;2023-03-03T00:32:54;99611.09;;;8.91;45.83
7157;BME280;3620;49.862;8.758;2023-03-03T00:35:24;99619.16;;;8.87;45.44
7157;BME280;3620;49.862;8.758;2023-03-03T00:37:54;99614.28;;;8.74;46.31
7157;BME280;3620;49.862;8.758;2023-03-03T00:40:22;99620.09;;;8.84;46.54
7157;BME280;3620;49.862;8.758;2023-03-03T00:42:51;99615.94;;;8.77;46.20
7157;BME280;3620;49.862;8.758;2023-03-03T00:45:31;99617.78;;;8.75;46.38
7157;BME280;3620;49.862;8.758;2023-03-03T00:48:10;99619.97;;;8.87;46.24
7157;BME280;3620;49.862;8.758;2023-03-03T00:50:42;99622.88;;;8.79;46.52
7157;BME280;3620;49.862;8.758;2023-03-03T00:53:11;99624.47;;;8.83;46.63
7157;BME280;3620;49.862;8.758;2023-03-03T00:55:39;99625.94;;;8.64;46.77
7157;BME280;3620;49.862;8.758;2023-03-03T00:58:05;99624.63;;;8.51;46.84
7157;BME280;3620;49.862;8.758;2023-03-03T01:00:34;99636.41;;;8.66;46.83
7157;BME280;3620;49.862;8.758;2023-03-03T01:03:04;99627.34;;;8.48;47.85
7157;BME280;3620;49.862;8.758;2023-03-03T01:05:32;99623.72;;;8.52;47.48
7157;BME280;3620;49.862;8.758;2023-03-03T01:07:59;99628.78;;;8.58;47.18
7157;BME280;3620;49.862;8.758;2023-03-03T01:10:27;99625.53;;;8.50;47.38
7157;BME280;3620;49.862;8.758;2023-03-03T01:12:56;99626.56;;;8.45;47.94
7157;BME280;3620;49.862;8.758;2023-03-03T01:15:23;99624.00;;;8.43;47.71
7157;BME280;3620;49.862;8.758;2023-03-03T01:17:51;99622.38;;;8.39;48.11
7157;BME280;3620;49.862;8.758;2023-03-03T01:20:18;99620.09;;;8.56;47.44
7157;BME280;3620;49.862;8.758;2023-03-03T01:22:44;99627.16;;;8.54;47.93
7157;BME280;3620;49.862;8.758;2023-03-03T01:25:11;99622.72;;;8.56;48.21
7157;BME280;3620;49.862;8.758;2023-03-03T01:27:38;99620.00;;;8.59;47.84
7157;BME280;3620;49.862;8.758;2023-03-03T01:30:06;99624.59;;;8.53;47.90
7157;BME280;3620;49.862;8.758;2023-03-03T01:32:33;99613.53;;;8.43;48.43
7157;BME280;3620;49.862;8.758;2023-03-03T01:35:01;99617.22;;;8.38;48.45
7157;BME280;3620;49.862;8.758;2023-03-03T01:37:28;99612.91;;;8.35;48.32
7157;BME280;3620;49.862;8.758;2023-03-03T01:39:54;99608.28;;;8.43;48.24
7157;BME280;3620;49.862;8.758;2023-03-03T01:42:21;99610.09;;;8.41;48.51
7157;BME280;3620;49.862;8.758;2023-03-03T01:44:48;99611.19;;;8.34;48.97
7157;BME280;3620;49.862;8.758;2023-03-03T01:47:16;99606.84;;;8.33;49.23
7157;BME280;3620;49.862;8.758;2023-03-03T01:49:47;99614.19;;;8.21;49.27
7157;BME280;3620;49.862;8.758;2023-03-03T01:52:24;99617.44;;;8.30;49.32
7157;BME280;3620;49.862;8.758;2023-03-03T01:54:54;99615.84;;;8.23;49.12
7157;BME280;3620;49.862;8.758;2023-03-03T01:57:25;99619.03;;;8.34;49.58
7157;BME280;3620;49.862;8.758;2023-03-03T01:59:54;99615.84;;;8.23;49.68
7157;BME280;3620;49.862;8.758;2023-03-03T02:02:23;99618.78;;;8.12;49.67
7157;BME280;3620;49.862;8.758;2023-03-03T02:04:50;99606.72;;;8.07;50.09
7157;BME280;3620;49.862;8.758;2023-03-03T02:07:19;99601.34;;;8.11;50.08
7157;BME280;3620;49.862;8.758;2023-03-03T02:09:53;99608.91;;;8.22;50.09
7157;BME280;3620;49.862;8.758;2023-03-03T02:12:25;99603.66;;;8.22;49.79
7157;BME280;3620;49.862;8.758;2023-03-03T02:14:53;99607.38;;;8.15;50.17
7157;BME280;3620;49.862;8.758;2023-03-03T02:17:20;99606.50;;;8.14;49.99
7157;BME280;3620;49.862;8.758;2023-03-03T02:19:51;99602.03;;;8.18;50.01
7157;BME280;3620;49.862;8.758;2023-03-03T02:22:31;99605.03;;;8.06;50.30
7157;BME280;3620;49.862;8.758;2023-03-03T02:25:01;99597.75;;;7.85;50.77
7157;BME280;3620;49.862;8.758;2023-03-03T02:27:31;99602.47;;;8.03;50.46
7157;BME280;3620;49.862;8.758;2023-03-03T02:30:08;99601.13;;;7.90;51.00
7157;BME280;3620;49.862;8.758;2023-03-03T02:32:34;99601.13;;;7.90;51.10
7157;BME280;3620;49.862;8.758;2023-03-03T02:35:18;99608.03;;;7.92;51.15
7157;BME280;3620;49.862;8.758;2023-03-03T02:37:47;99609.78;;;7.92;51.05
7157;BME280;3620;49.862;8.758;2023-03-03T02:40:15;99602.84;;;7.91;51.29
7157;BME280;3620;49.862;8.758;2023-03-03T02:42:47;99599.63;;;7.81;51.14
7157;BME280;3620;49.862;8.758;2023-03-03T02:45:17;99600.09;;;7.95;51.05
7157;BME280;3620;49.862;8.758;2023-03-03T02:47:48;99590.47;;;7.96;50.92
7157;BME280;3620;49.862;8.758;2023-03-03T02:50:14;99605.50;;;7.89;51.46
7157;BME280;3620;49.862;8.758;2023-03-03T02:52:41;99598.56;;;7.88;51.47
7157;BME280;3620;49.862;8.758;2023-03-03T02:55:08;99600.50;;;7.80;51.88
7157;BME280;3620;49.862;8.758;2023-03-03T02:57:35;99597.75;;;7.85;52.00
7157;BME280;3620;49.862;8.758;2023-03-03T03:00:04;99599.94;;;7.71;52.39
7157;BME280;3620;49.862;8.758;2023-03-03T03:02:30;99608.50;;;7.76;52.36
7157;BME280;3620;49.862;8.758;2023-03-03T03:04:57;99605.50;;;7.89;52.07
7157;BME280;3620;49.862;8.758;2023-03-03T03:07:23;99608.41;;;7.79;52.25
7157;BME280;3620;49.862;8.758;2023-03-03T03:09:50;99619.59;;;7.85;52.36
7157;BME280;3620;49.862;8.758;2023-03-03T03:12:17;99615.22;;;7.86;52.27
7157;BME280;3620;49.862;8.758;2023-03-03T03:14:45;99614.41;;;7.82;52.26
7157;BME280;3620;49.862;8.758;2023-03-03T03:17:13;99618.91;;;7.79;52.47
7157;BME280;3620;49.862;8.758;2023-03-03T03:19:40;99618.28;;;7.69;52.55
7157;BME280;3620;49.862;8.758;2023-03-03T03:22:06;99616.41;;;7.74;52.64
7157;BME280;3620;49.862;8.758;2023-03-03T03:24:33;99620.66;;;7.78;52.56
7157;BME280;3620;49.862;8.758;2023-03-03T03:26:59;99611.59;;;7.90;52.56
7157;BME280;3620;49.862;8.758;2023-03-03T03:29:26;99614.41;;;7.82;52.82
7157;BME280;3620;49.862;8.758;2023-03-03T03:31:52;99614.53;;;7.79;53.08
7157;BME280;3620;49.862;8.758;2023-03-03T03:34:20;99621.72;;;7.71;53.18
7157;BME280;3620;49.862;8.758;2023-03-03T03:36:47;99614.84;;;7.67;53.06
7157;BME280;3620;49.862;8.758;2023-03-03T03:39:13;99620.81;;;6.73;55.75
7157;BME280;3620;49.862;8.758;2023-03-03T03:41:40;99614.09;;;6.61;56.84
7157;BME280;3620;49.862;8.758;2023-03-03T03:44:06;99614.69;;;5.96;58.67
7157;BME280;3620;49.862;8.758;2023-03-03T03:46:33;99616.56;;;5.89;60.20
7157;BME280;3620;49.862;8.758;2023-03-03T03:48:59;99624.19;;;5.55;61.32
7157;BME280;3620;49.862;8.758;2023-03-03T03:51:27;99626.88;;;5.51;62.06
7157;BME280;3620;49.862;8.758;2023-03-03T03:53:55;99629.25;;;5.64;61.82
7157;BME280;3620;49.862;8.758;2023-03-03T03:56:21;99634.41;;;5.66;62.00
7157;BME280;3620;49.862;8.758;2023-03-03T03:58:48;99619.34;;;5.34;63.14
7157;BME280;3620;49.862;8.758;2023-03-03T04:01:14;99624.75;;;5.25;63.72
7157;BME280;3620;49.862;8.758;2023-03-03T04:03:41;99624.38;;;5.45;63.49
7157;BME280;3620;49.862;8.758;2023-03-03T04:06:07;99625.31;;;4.92;64.98
7157;BME280;3620;49.862;8.758;2023-03-03T04:08:35;99631.06;;;5.12;64.50
7157;BME280;3620;49.862;8.758;2023-03-03T04:11:02;99628.09;;;5.33;63.83
7157;BME280;3620;49.862;8.758;2023-03-03T04:13:28;99633.63;;;5.15;65.09
7157;BME280;3620;49.862;8.758;2023-03-03T04:15:56;99633.53;;;5.18;64.73
7157;BME280;3620;49.862;8.758;2023-03-03T04:18:22;99632.25;;;4.91;64.92
7157;BME280;3620;49.862;8.758;2023-03-03T04:20:49;99627.84;;;4.96;66.11
7157;BME280;3620;49.862;8.758;2023-03-03T04:23:16;99639.03;;;5.03;65.76
7157;BME280;3620;49.862;8.758;2023-03-03T04:25:46;99637.09;;;5.15;65.54
7157;BME280;3620;49.862;8.758;2023-03-03T04:28:13;99637.47;;;4.93;66.81
7157;BME280;3620;49.862;8.758;2023-03-03T04:30:39;99639.38;;;4.82;67.06
7157;BME280;3620;49.862;8.758;2023-03-03T04:33:06;99639.59;;;5.22;66.11
7157;BME280;3620;49.862;8.758;2023-03-03T04:35:33;99634.06;;;5.38;66.01
7157;BME280;3620;49.862;8.758;2023-03-03T04:38:00;99646.38;;;5.30;65.37
7157;BME280;3620;49.862;8.758;2023-03-03T04:40:26;99638.28;;;5.45;65.32
7157;BME280;3620;49.862;8.758;2023-03-03T04:42:54;99645.94;;;5.54;65.10
7157;BME280;3620;49.862;8.758;2023-03-03T04:45:21;99648.69;;;5.47;65.22
7157;BME280;3620;49.862;8.758;2023-03-03T04:47:47;99649.25;;;5.15;67.00
7157;BME280;3620;49.862;8.758;2023-03-03T04:50:14;99659.63;;;5.18;66.75
7157;BME280;3620;49.862;8.758;2023-03-03T04:52:40;99656.13;;;5.19;67.20
7157;BME280;3620;49.862;8.758;2023-03-03T04:55:08;99656.59;;;4.92;67.94
7157;BME280;3620;49.862;8.758;2023-03-03T04:57:35;99656.56;;;4.95;68.48
7157;BME280;3620;49.862;8.758;2023-03-03T05:00:03;99663.56;;;4.90;68.55
7157;BME280;3620;49.862;8.758;2023-03-03T05:02:30;99662.16;;;4.71;69.59
7157;BME280;3620;49.862;8.758;2023-03-03T05:04:57;99664.91;;;5.15;68.28
7157;BME280;3620;49.862;8.758;2023-03-03T05:07:24;99667.84;;;4.94;68.52
7157;BME280;3620;49.862;8.758;2023-03-03T05:09:50;99668.34;;;5.17;67.69
7157;BME280;3620;49.862;8.758;2023-03-03T05:12:17;99660.22;;;5.34;66.64
7157;BME280;3620;49.862;8.758;2023-03-03T05:14:43;99662.06;;;5.27;67.83
7157;BME280;3620;49.862;8.758;2023-03-03T05:17:11;99664.75;;;5.24;68.43
7157;BME280;3620;49.862;8.758;2023-03-03T05:19:37;99668.19;;;5.26;67.82
7157;BME280;3620;49.862;8.758;2023-03-03T05:22:04;99653.81;;;5.02;69.71
7157;BME280;3620;49.862;8.758;2023-03-03T05:24:31;99653.47;;;5.24;69.31
7157;BME280;3620;49.862;8.758;2023-03-03T05:26:57;99655.16;;;5.26;69.23
7157;BME280;3620;49.862;8.758;2023-03-03T05:29:24;99655.59;;;5.49;68.96
7157;BME280;3620;49.862;8.758;2023-03-03T05:31:50;99646.97;;;5.91;66.78
7157;BME280;3620;49.862;8.758;2023-03-03T05:34:18;99653.31;;;5.78;67.29
7157;BME280;3620;49.862;8.758;2023-03-03T05:36:44;99652.31;;;5.38;67.97
7157;BME280;3620;49.862;8.758;2023-03-03T05:39:11;99659.22;;;4.90;70.14
7157;BME280;3620;49.862;8.758;2023-03-03T05:41:37;99658.06;;;4.52;72.07
7157;BME280;3620;49.862;8.758;2023-03-03T05:44:04;99658.00;;;4.58;73.21
7157;BME280;3620;49.862;8.758;2023-03-03T05:46:31;99660.63;;;4.58;73.02
7157;BME280;3620;49.862;8.758;2023-03-03T05:48:58;99665.81;;;4.58;73.67
7157;BME280;3620;49.862;8.758;2023-03-03T05:51:25;99665.94;;;4.49;73.98
7157;BME280;3620;49.862;8.758;2023-03-03T05:53:52;99671.56;;;4.78;73.60
7157;BME280;3620;49.862;8.758;2023-03-03T05:56:19;99669.19;;;4.64;73.41
7157;BME280;3620;49.862;8.758;2023-03-03T05:58:45;99673.81;;;4.42;73.38
7157;BME280;3620;49.862;8.758;2023-03-03T06:01:12;99683.13;;;4.62;73.09
7157;BME280;3620;49.862;8.758;2023-03-03T06:03:38;99682.75;;;4.26;73.78
7157;BME280;3620;49.862;8.758;2023-03-03T06:06:05;99685.13;;;5.01;72.15
7157;BME280;3620;49.862;8.758;2023-03-03T06:08:34;99685.34;;;5.39;69.77
7157;BME280;3620;49.862;8.758;2023-03-03T06:11:01;99691.66;;;5.73;69.03
7157;BME280;3620;49.862;8.758;2023-03-03T06:13:27;99693.97;;;5.93;68.00
7157;BME280;3620;49.862;8.758;2023-03-03T06:15:54;99704.16;;;6.05;67.42
7157;BME280;3620;49.862;8.758;2023-03-03T06:18:20;99694.44;;;6.12;66.71
7157;BME280;3620;49.862;8.758;2023-03-03T06:20:50;99696.09;;;6.16;66.53
7157;BME280;3620;49.862;8.758;2023-03-03T06:23:17;99704.66;;;6.24;67.23
7157;BME280;3620;49.862;8.758;2023-03-03T06:25:45;99699.19;;;6.34;66.69
7157;BME280;3620;49.862;8.758;2023-03-03T06:28:12;99715.09;;;6.24;66.94
7157;BME280;3620;49.862;8.758;2023-03-03T06:30:39;99710.88;;;6.17;66.63
7157;BME280;3620;49.862;8.758;2023-03-03T06:33:05;99709.56;;;6.39;66.40
7157;BME280;3620;49.862;8.758;2023-03-03T06:35:32;99715.47;;;6.47;65.89
7157;BME280;3620;49.862;8.758;2023-03-03T06:37:58;99724.53;;;6.31;66.04
7157;BME280;3620;49.862;8.758;2023-03-03T06:40:25;99719.81;;;6.48;65.79
7157;BME280;3620;49.862;8.758;2023-03-03T06:42:53;99724.13;;;6.50;65.49
7157;BME280;3620;49.862;8.758;2023-03-03T06:45:19;99720.34;;;6.63;64.84
7157;BME280;3620;49.862;8.758;2023-03-03T06:47:46;99725.72;;;6.57;65.33
7157;BME280;3620;49.862;8.758;2023-03-03T06:50:12;99721.84;;;6.74;64.58
7157;BME280;3620;49.862;8.758;2023-03-03T06:52:42;99725.09;;;6.85;65.10
7157;BME280;3620;49.862;8.758;2023-03-03T06:55:17;99727.47;;;6.95;64.48
7157;BME280;3620;49.862;8.758;2023-03-03T06:57:46;99730.78;;;7.03;64.08
7157;BME280;3620;49.862;8.758;2023-03-03T07:00:16;99731.81;;;6.96;64.12
7157;BME280;3620;49.862;8.758;2023-03-03T07:02:44;99741.19;;;7.06;64.22
7157;BME280;3620;49.862;8.758;2023-03-03T07:05:14;99742.72;;;7.13;63.57
7157;BME280;3620;49.862;8.758;2023-03-03T07:07:41;99749.06;;;7.03;63.69
7157;BME280;3620;49.862;8.758;2023-03-03T07:10:17;99753.28;;;7.10;63.62
7157;BME280;3620;49.862;8.758;2023-03-03T07:12:45;99761.94;;;7.12;63.73
7157;BME280;3620;49.862;8.758;2023-03-03T07:15:16;99762.22;;;7.00;64.06
7157;BME280;3620;49.862;8.758;2023-03-03T07:17:47;99758.78;;;6.98;64.66
7157;BME280;3620;49.862;8.758;2023-03-03T07:20:18;99770.16;;;6.97;65.19
7157;BME280;3620;49.862;8.758;2023-03-03T07:22:45;99779.94;;;7.26;64.79
7157;BME280;3620;49.862;8.758;2023-03-03T07:25:19;99773.28;;;7.11;64.65
7157;BME280;3620;49.862;8.758;2023-03-03T07:27:46;99784.84;;;6.19;68.47
7157;BME280;3620;49.862;8.758;2023-03-03T07:30:23;99787.72;;;6.05;70.17
7157;BME280;3620;49.862;8.758;2023-03-03T07:32:52;99781.81;;;5.94;70.91
7157;BME280;3620;49.862;8.758;2023-03-03T07:35:29;99787.88;;;5.96;70.94
7157;BME280;3620;49.862;8.758;2023-03-03T07:38:01;99793.59;;;6.18;70.90
7157;BME280;3620;49.862;8.758;2023-03-03T07:40:34;99791.84;;;6.17;70.79
7157;BME280;3620;49.862;8.758;2023-03-03T07:43:20;99786.00;;;6.04;72.45
7157;BME280;3620;49.862;8.758;2023-03-03T07:45:54;99800.25;;;5.83;73.62
7157;BME280;3620;49.862;8.758;2023-03-03T07:48:24;99804.25;;;6.06;72.82
7157;BME280;3620;49.862;8.758;2023-03-03T07:50:51;99813.03;;;6.02;74.21
7157;BME280;3620;49.862;8.758;2023-03-03T07:53:25;99816.63;;;5.95;73.28
7157;BME280;3620;49.862;8.758;2023-03-03T07:55:52;99817.63;;;6.33;73.04
7157;BME280;3620;49.862;8.758;2023-03-03T07:58:21;99817.53;;;6.39;71.82
7157;BME280;3620;49.862;8.758;2023-03-03T08:03:56;99819.63;;;6.21;74.41
7157;BME280;3620;49.862;8.758;2023-03-03T08:06:30;99822.31;;;6.62;72.63
7157;BME280;3620;49.862;8.758;2023-03-03T08:09:02;99816.28;;;6.58;71.73
7157;BME280;3620;49.862;8.758;2023-03-03T08:11:41;99815.00;;;6.79;71.79
7157;BME280;3620;49.862;8.758;2023-03-03T08:14:15;99825.69;;;6.67;71.69
7157;BME280;3620;49.862;8.758;2023-03-03T08:16:44;99834.06;;;6.41;72.14
7157;BME280;3620;49.862;8.758;2023-03-03T08:19:14;99841.97;;;6.37;72.91
7157;BME280;3620;49.862;8.758;2023-03-03T08:21:42;99850.59;;;6.42;72.46
7157;BME280;3620;49.862;8.758;2023-03-03T08:24:09;99841.06;;;6.39;72.85
7157;BME280;3620;49.862;8.758;2023-03-03T08:26:36;99838.00;;;6.62;73.00
7157;BME280;3620;49.862;8.758;2023-03-03T08:29:03;99843.09;;;6.68;71.96
7157;BME280;3620;49.862;8.758;2023-03-03T08:31:29;99839.59;;;6.69;71.79
7157;BME280;3620;49.862;8.758;2023-03-03T08:33:56;99841.91;;;6.84;71.03
7157;BME280;3620;49.862;8.758;2023-03-03T08:36:24;99836.69;;;7.22;69.54
7157;BME280;3620;49.862;8.758;2023-03-03T08:38:51;99844.97;;;7.43;68.92
7157;BME280;3620;49.862;8.758;2023-03-03T08:41:18;99844.47;;;7.64;68.32
7157;BME280;3620;49.862;8.758;2023-03-03T08:43:49;99836.06;;;7.11;70.63
7157;BME280;3620;49.862;8.758;2023-03-03T08:46:15;99830.53;;;7.25;70.30
7157;BME280;3620;49.862;8.758;2023-03-03T08:48:42;99827.19;;;7.57;69.80
7157;BME280;3620;49.862;8.758;2023-03-03T08:51:09;99823.38;;;7.70;68.11
7157;BME280;3620;49.862;8.758;2023-03-03T08:53:37;99829.88;;;7.17;70.06
7157;BME280;3620;49.862;8.758;2023-03-03T08:56:04;99831.38;;;7.99;67.83
7157;BME280;3620;49.862;8.758;2023-03-03T08:58:31;99833.00;;;8.03;66.77
7157;BME280;3620;49.862;8.758;2023-03-03T09:00:58;99835.97;;;7.91;67.90
7157;BME280;3620;49.862;8.758;2023-03-03T09:03:24;99842.38;;;7.78;66.79
7157;BME280;3620;49.862;8.758;2023-03-03T09:05:51;99833.19;;;7.97;65.61
7157;BME280;3620;49.862;8.758;2023-03-03T09:08:18;99840.22;;;7.60;67.06
7157;BME280;3620;49.862;8.758;2023-03-03T09:10:46;99827.47;;;7.45;67.82
7157;BME280;3620;49.862;8.758;2023-03-03T09:13:14;99838.94;;;7.76;67.39
7157;BME280;3620;49.862;8.758;2023-03-03T09:15:47;99847.69;;;7.75;67.22
7157;BME280;3620;49.862;8.758;2023-03-03T09:18:30;99844.53;;;7.61;67.80
7157;BME280;3620;49.862;8.758;2023-03-03T09:20:59;99848.13;;;7.57;67.67
7157;BME280;3620;49.862;8.758;2023-03-03T09:24:01;99854.03;;;7.66;67.67
7157;BME280;3620;49.862;8.758;2023-03-03T09:26:49;99853.78;;;7.38;68.02
7157;BME280;3620;49.862;8.758;2023-03-03T09:29:24;99842.97;;;7.54;68.21
7157;BME280;3620;49.862;8.758;2023-03-03T09:31:53;99845.25;;;7.69;67.95
7157;BME280;3620;49.862;8.758;2023-03-03T09:34:22;99847.97;;;7.63;68.34
7157;BME280;3620;49.862;8.758;2023-03-03T09:36:51;99845.16;;;7.72;67.96
7157;BME280;3620;49.862;8.758;2023-03-03T09:39:20;99851.34;;;8.03;68.39
7157;BME280;3620;49.862;8.758;2023-03-03T09:42:11;99857.94;;;8.19;68.26
7157;BME280;3620;49.862;8.758;2023-03-03T09:45:16;99860.75;;;7.76;68.21
7157;BME280;3620;49.862;8.758;2023-03-03T09:47:52;99852.63;;;7.87;68.54
7157;BME280;3620;49.862;8.758;2023-03-03T09:50:29;99848.31;;;7.86;69.00
7157;BME280;3620;49.862;8.758;2023-03-03T09:53:09;99837.44;;;7.66;68.75
7157;BME280;3620;49.862;8.758;2023-03-03T09:55:45;99846.97;;;7.31;70.60
7157;BME280;3620;49.862;8.758;2023-03-03T09:58:31;99846.28;;;7.23;71.50
7157;BME280;3620;49.862;8.758;2023-03-03T10:01:10;99848.91;;;7.97;68.04
7157;BME280;3620;49.862;8.758;2023-03-03T10:04:10;99860.84;;;8.08;68.08
7157;BME280;3620;49.862;8.758;2023-03-03T10:06:44;99862.09;;;7.92;68.16
7157;BME280;3620;49.862;8.758;2023-03-03T10:09:38;99852.88;;;8.45;66.40
7157;BME280;3620;49.862;8.758;2023-03-03T10:12:12;99863.50;;;8.41;65.64
7157;BME280;3620;49.862;8.758;2023-03-03T10:14:56;99859.75;;;8.15;68.14
7157;BME280;3620;49.862;8.758;2023-03-03T10:17:34;99857.22;;;8.78;66.48
7157;BME280;3620;49.862;8.758;2023-03-03T10:20:17;99864.44;;;8.38;66.15
7157;BME280;3620;49.862;8.758;2023-03-03T10:22:52;99866.06;;;9.05;64.56
7157;BME280;3620;49.862;8.758;2023-03-03T10:25:26;99868.22;;;9.20;63.07
7157;BME280;3620;49.862;8.758;2023-03-03T10:28:03;99867.25;;;8.94;64.49
7157;BME280;3620;49.862;8.758;2023-03-03T10:30:43;99854.63;;;8.77;64.62
7157;BME280;3620;49.862;8.758;2023-03-03T10:33:17;99857.13;;;8.81;63.88
7157;BME280;3620;49.862;8.758;2023-03-03T10:38:48;99857.59;;;9.25;62.50
7157;BME280;3620;49.862;8.758;2023-03-03T10:41:30;99856.94;;;8.88;64.14
7157;BME280;3620;49.862;8.758;2023-03-03T10:44:09;99859.03;;;9.35;62.55
7157;BME280;3620;49.862;8.758;2023-03-03T10:46:50;99863.75;;;9.53;62.18
7157;BME280;3620;49.862;8.758;2023-03-03T10:49:29;99860.19;;;9.54;62.25
7157;BME280;3620;49.862;8.758;2023-03-03T10:52:23;99863.69;;;9.54;61.32
7157;BME280;3620;49.862;8.758;2023-03-03T10:55:09;99867.41;;;10.01;58.96
7157;BME280;3620;49.862;8.758;2023-03-03T10:57:48;99874.09;;;10.11;59.13
7157;BME280;3620;49.862;8.758;2023-03-03T11:00:23;99869.03;;;10.05;58.98
7157;BME280;3620;49.862;8.758;2023-03-03T11:03:12;99876.72;;;9.57;59.29
7157;BME280;3620;49.862;8.758;2023-03-03T11:05:50;99871.25;;;9.91;58.82
7157;BME280;3620;49.862;8.758;2023-03-03T11:08:21;99880.13;;;9.87;58.35
7157;BME280;3620;49.862;8.758;2023-03-03T11:10:58;99869.81;;;10.35;57.90
7157;BME280;3620;49.862;8.758;2023-03-03T11:13:35;99876.66;;;10.14;57.28
7157;BME280;3620;49.862;8.758;2023-03-03T11:16:17;99873.50;;;10.29;56.55
7157;BME280;3620;49.862;8.758;2023-03-03T11:21:59;99866.00;;;10.44;55.80
7157;BME280;3620;49.862;8.758;2023-03-03T11:24:34;99865.69;;;10.53;55.53
7157;BME280;3620;49.862;8.758;2023-03-03T11:27:17;99864.25;;;10.69;56.62
7157;BME280;3620;49.862;8.758;2023-03-03T11:30:14;99860.09;;;10.62;56.06
7157;BME280;3620;49.862;8.758;2023-03-03T11:32:50;99869.00;;;10.58;56.22
7157;BME280;3620;49.862;8.758;2023-03-03T11:35:24;99855.22;;;10.99;56.08
7157;BME280;3620;49.862;8.758;2023-03-03T11:37:59;99846.75;;;10.91;55.70
7157;BME280;3620;49.862;8.758;2023-03-03T11:40:30;99851.78;;;10.97;54.77
7157;BME280;3620;49.862;8.758;2023-03-03T11:43:02;99853.19;;;10.58;56.03
7157;BME280;3620;49.862;8.758;2023-03-03T11:45:37;99845.47;;;10.78;55.19
7157;BME280;3620;49.862;8.758;2023-03-03T11:48:10;99842.16;;;10.73;53.31
7157;BME280;3620;49.862;8.758;2023-03-03T11:50:45;99836.91;;;10.96;53.64
7157;BME280;3620;49.862;8.758;2023-03-03T11:53:31;99827.25;;;11.18;53.32
7157;BME280;3620;49.862;8.758;2023-03-03T11:56:06;99827.59;;;11.32;51.98
7157;BME280;3620;49.862;8.758;2023-03-03T11:58:43;99829.53;;;11.50;51.22
7157;BME280;3620;49.862;8.758;2023-03-03T12:01:17;99819.34;;;11.41;50.96
7157;BME280;3620;49.862;8.758;2023-03-03T12:03:48;99814.59;;;11.51;51.87
7157;BME280;3620;49.862;8.758;2023-03-03T12:06:24;99807.09;;;11.62;51.96
7157;BME280;3620;49.862;8.758;2023-03-03T12:09:14;99809.31;;;11.06;54.77
7157;BME280;3620;49.862;8.758;2023-03-03T12:11:49;99807.75;;;11.45;53.68
7157;BME280;3620;49.862;8.758;2023-03-03T12:14:35;99801.44;;;11.49;53.26
7157;BME280;3620;49.862;8.758;2023-03-03T12:17:14;99804.84;;;11.53;53.11
7157;BME280;3620;49.862;8.758;2023-03-03T12:19:49;99804.75;;;11.77;52.43
7157;BME280;3620;49.862;8.758;2023-03-03T12:22:30;99797.78;;;11.97;52.05
7157;BME280;3620;49.862;8.758;2023-03-03T12:25:21;99799.91;;;11.87;52.02
7157;BME280;3620;49.862;8.758;2023-03-03T12:27:55;99802.22;;;11.08;53.45
7157;BME280;3620;49.862;8.758;2023-03-03T12:30:33;99795.63;;;11.41;54.44
7157;BME280;3620;49.862;8.758;2023-03-03T12:33:11;99798.03;;;11.47;53.33
7157;BME280;3620;49.862;8.758;2023-03-03T12:35:46;99789.38;;;11.65;53.07
7157;BME280;3620;49.862;8.758;2023-03-03T12:38:23;99785.34;;;11.78;52.89
7157;BME280;3620;49.862;8.758;2023-03-03T12:40:57;99778.94;;;12.26;51.12
7157;BME280;3620;49.862;8.758;2023-03-03T12:43:38;99769.28;;;12.25;51.77
7157;BME280;3620;49.862;8.758;2023-03-03T12:46:13;99777.47;;;11.99;50.89
7157;BME280;3620;49.862;8.758;2023-03-03T12:48:44;99778.31;;;11.99;51.54
7157;BME280;3620;49.862;8.758;2023-03-03T12:51:21;99768.16;;;11.90;51.61
7157;BME280;3620;49.862;8.758;2023-03-03T12:54:19;99767.59;;;12.24;51.09
7157;BME280;3620;49.862;8.758;2023-03-03T12:56:57;99760.66;;;12.60;50.24
7157;BME280;3620;49.862;8.758;2023-03-03T12:59:35;99761.69;;;12.76;48.99
7157;BME280;3620;49.862;8.758;2023-03-03T13:02:28;99764.25;;;12.59;49.14
7157;BME280;3620;49.862;8.758;2023-03-03T13:05:05;99759.47;;;12.28;50.34
7157;BME280;3620;49.862;8.758;2023-03-03T13:07:40;99762.81;;;12.52;49.96
7157;BME280;3620;49.862;8.758;2023-03-03T13:10:17;99749.69;;;12.69;49.35
7157;BME280;3620;49.862;8.758;2023-03-03T13:12:50;99754.78;;;12.35;50.04
7157;BME280;3620;49.862;8.758;2023-03-03T13:15:22;99749.34;;;12.38;49.85
7157;BME280;3620;49.862;8.758;2023-03-03T13:18:00;99759.66;;;12.44;48.84
7157;BME280;3620;49.862;8.758;2023-03-03T13:20:36;99754.50;;;12.41;50.08
7157;BME280;3620;49.862;8.758;2023-03-03T13:23:09;99762.31;;;12.24;50.85
7157;BME280;3620;49.862;8.758;2023-03-03T13:25:49;99752.28;;;12.71;49.15
7157;BME280;3620;49.862;8.758;2023-03-03T13:28:24;99756.06;;;12.45;48.95
7157;BME280;3620;49.862;8.758;2023-03-03T13:30:57;99751.97;;;12.58;49.00
7157;BME280;3620;49.862;8.758;2023-03-03T13:33:28;99745.34;;;12.68;48.91
7157;BME280;3620;49.862;8.758;2023-03-03T13:35:57;99740.63;;;12.56;49.08
7157;BME280;3620;49.862;8.758;2023-03-03T13:38:28;99747.56;;;12.77;48.28
7157;BME280;3620;49.862;8.758;2023-03-03T13:41:03;99746.75;;;12.57;49.18
7157;BME280;3620;49.862;8.758;2023-03-03T13:43:35;99734.72;;;12.88;48.71
7157;BME280;3620;49.862;8.758;2023-03-03T13:46:09;99735.59;;;13.07;48.67
7157;BME280;3620;49.862;8.758;2023-03-03T13:48:50;99736.03;;;13.17;47.60
7157;BME280;3620;49.862;8.758;2023-03-03T13:51:30;99734.53;;;13.11;47.71
7157;BME280;3620;49.862;8.758;2023-03-03T13:54:06;99742.56;;;13.80;47.16
7157;BME280;3620;49.862;8.758;2023-03-03T13:56:48;99738.69;;;13.87;46.50
7157;BME280;3620;49.862;8.758;2023-03-03T13:59:26;99733.25;;;13.73;45.93
7157;BME280;3620;49.862;8.758;2023-03-03T14:02:00;99733.97;;;13.41;47.25